sensor_id;sensor_type;location;lat;lon;timestamp;pressure;altitude;pressure_sealevel;temperature;humidity
34979;BME280;21185;50.978;13.720;2022-07-23T00:04:39;98387.91;;;24.21;48.63
34979;BME280;21185;50.978;13.720;2022-07-23T00:09:41;98383.34;;;24.16;48.41
34979;BME280;21185;50.978;13.720;2022-07-23T00:14:43;98375.88;;;24.13;49.02
34979;BME280;21185;50.978;13.720;2022-07-23T00:19:45;98377.16;;;24.11;48.94
34979;BME280;21185;50.978;13.720;2022-07-23T00:24:47;98365.47;;;24.07;48.78
34979;BME280;21185;50.978;13.720;2022-07-23T00:30:11;98366.75;;;24.04;49.33
34979;BME280;21185;50.978;13.720;2022-07-23T00:35:13;98362.25;;;24.05;49.35
34979;BME280;21185;50.978;13.720;2022-07-23T00:40:16;98361.19;;;24.06;48.95
34979;BME280;21185;50.978;13.720;2022-07-23T00:45:18;98353.25;;;24.06;49.11
34979;BME280;21185;50.978;13.720;2022-07-23T00:50:20;98367.56;;;24.05;49.01
34979;BME280;21185;50.978;13.720;2022-07-23T00:55:22;98365.41;;;24.02;49.32
34979;BME280;21185;50.978;13.720;2022-07-23T01:00:24;98372.22;;;23.98;49.27
34979;BME280;21185;50.978;13.720;2022-07-23T01:05:29;98361.81;;;23.91;49.33
34979;BME280;21185;50.978;13.720;2022-07-23T01:10:31;98361.50;;;23.87;49.87
34979;BME280;21185;50.978;13.720;2022-07-23T01:15:34;98347.69;;;23.85;49.67
34979;BME280;21185;50.978;13.720;2022-07-23T01:20:37;98341.28;;;23.81;49.88
34979;BME280;21185;50.978;13.720;2022-07-23T01:25:48;98325.06;;;23.78;50.09
34979;BME280;21185;50.978;13.720;2022-07-23T01:30:51;98320.03;;;23.76;50.37
34979;BME280;21185;50.978;13.720;2022-07-23T01:35:53;98310.72;;;23.74;50.21
34979;BME280;21185;50.978;13.720;2022-07-23T01:40:58;98304.56;;;23.68;50.44
34979;BME280;21185;50.978;13.720;2022-07-23T01:46:07;98303.44;;;23.64;50.61
34979;BME280;21185;50.978;13.720;2022-07-23T01:51:19;98285.63;;;23.60;50.81
34979;BME280;21185;50.978;13.720;2022-07-23T01:56:30;98283.72;;;23.55;51.01
34979;BME280;21185;50.978;13.720;2022-07-23T02:01:32;98283.94;;;23.53;51.25
34979;BME280;21185;50.978;13.720;2022-07-23T02:06:34;98284.19;;;23.52;51.36
34979;BME280;21185;50.978;13.720;2022-07-23T02:11:36;98279.63;;;23.47;51.48
34979;BME280;21185;50.978;13.720;2022-07-23T02:16:38;98277.72;;;23.43;51.75
34979;BME280;21185;50.978;13.720;2022-07-23T02:21:41;98277.66;;;23.38;51.82
34979;BME280;21185;50.978;13.720;2022-07-23T02:26:43;98270.69;;;23.32;52.07
34979;BME280;21185;50.978;13.720;2022-07-23T02:31:45;98270.38;;;23.28;52.11
34979;BME280;21185;50.978;13.720;2022-07-23T02:36:51;98272.69;;;23.24;52.21
34979;BME280;21185;50.978;13.720;2022-07-23T02:41:55;98271.09;;;23.23;52.30
34979;BME280;21185;50.978;13.720;2022-07-23T02:46:58;98256.50;;;23.21;52.59
34979;BME280;21185;50.978;13.720;2022-07-23T02:52:00;98250.41;;;23.20;52.47
34979;BME280;21185;50.978;13.720;2022-07-23T02:57:03;98247.19;;;23.18;52.67
34979;BME280;21185;50.978;13.720;2022-07-23T03:02:06;98250.88;;;23.17;52.91
34979;BME280;21185;50.978;13.720;2022-07-23T03:07:08;98245.03;;;23.15;52.68
34979;BME280;21185;50.978;13.720;2022-07-23T03:12:10;98236.53;;;23.13;53.23
34979;BME280;21185;50.978;13.720;2022-07-23T03:17:15;98244.72;;;23.12;53.01
34979;BME280;21185;50.978;13.720;2022-07-23T03:22:17;98242.56;;;23.09;53.47
34979;BME280;21185;50.978;13.720;2022-07-23T03:27:26;98241.19;;;23.06;53.65
34979;BME280;21185;50.978;13.720;2022-07-23T03:32:29;98237.44;;;23.02;53.42
34979;BME280;21185;50.978;13.720;2022-07-23T03:37:31;98216.75;;;22.99;53.78
34979;BME280;21185;50.978;13.720;2022-07-23T03:42:34;98213.06;;;23.00;53.96
34979;BME280;21185;50.978;13.720;2022-07-23T03:47:37;98218.34;;;23.00;53.65
34979;BME280;21185;50.978;13.720;2022-07-23T03:52:40;98212.25;;;23.00;53.96
34979;BME280;21185;50.978;13.720;2022-07-23T03:57:42;98228.63;;;22.97;54.06
34979;BME280;21185;50.978;13.720;2022-07-23T04:02:45;98225.34;;;22.89;54.19
34979;BME280;21185;50.978;13.720;2022-07-23T04:07:47;98220.78;;;22.85;54.25
34979;BME280;21185;50.978;13.720;2022-07-23T04:12:49;98202.19;;;22.80;54.31
34979;BME280;21185;50.978;13.720;2022-07-23T04:17:51;98194.25;;;22.80;54.79
34979;BME280;21185;50.978;13.720;2022-07-23T04:22:54;98208.28;;;22.80;54.82
34979;BME280;21185;50.978;13.720;2022-07-23T04:27:56;98215.41;;;22.80;54.72
34979;BME280;21185;50.978;13.720;2022-07-23T04:32:58;98217.03;;;22.81;54.82
34979;BME280;21185;50.978;13.720;2022-07-23T04:38:03;98213.88;;;22.84;54.70
34979;BME280;21185;50.978;13.720;2022-07-23T04:43:05;98231.38;;;22.85;54.99
34979;BME280;21185;50.978;13.720;2022-07-23T04:48:12;98219.97;;;22.84;55.27
34979;BME280;21185;50.978;13.720;2022-07-23T04:53:15;98243.78;;;22.84;55.10
34979;BME280;21185;50.978;13.720;2022-07-23T04:58:18;98222.88;;;22.83;55.09
34979;BME280;21185;50.978;13.720;2022-07-23T05:03:19;98226.00;;;22.80;55.42
34979;BME280;21185;50.978;13.720;2022-07-23T05:08:22;98220.47;;;22.81;55.71
34979;BME280;21185;50.978;13.720;2022-07-23T05:13:27;98235.06;;;22.84;55.40
34979;BME280;21185;50.978;13.720;2022-07-23T05:18:29;98227.69;;;22.86;55.45
34979;BME280;21185;50.978;13.720;2022-07-23T05:23:31;98233.44;;;22.83;55.94
34979;BME280;21185;50.978;13.720;2022-07-23T05:28:33;98256.59;;;22.76;55.95
34979;BME280;21185;50.978;13.720;2022-07-23T05:33:35;98265.00;;;22.73;56.04
34979;BME280;21185;50.978;13.720;2022-07-23T05:38:37;98270.78;;;22.70;56.42
34979;BME280;21185;50.978;13.720;2022-07-23T05:43:41;98280.00;;;22.67;56.54
34979;BME280;21185;50.978;13.720;2022-07-23T05:48:45;98311.25;;;22.70;56.28
34979;BME280;21185;50.978;13.720;2022-07-23T05:54:24;98298.59;;;22.72;56.46
34979;BME280;21185;50.978;13.720;2022-07-23T05:59:26;98330.56;;;22.71;56.37
34979;BME280;21185;50.978;13.720;2022-07-23T06:04:28;98340.81;;;22.67;56.71
34979;BME280;21185;50.978;13.720;2022-07-23T06:09:49;98354.75;;;22.62;56.52
34979;BME280;21185;50.978;13.720;2022-07-23T06:14:51;98357.78;;;22.54;56.76
34979;BME280;21185;50.978;13.720;2022-07-23T06:19:55;98361.47;;;22.53;56.54
34979;BME280;21185;50.978;13.720;2022-07-23T06:24:57;98369.97;;;22.55;56.90
34979;BME280;21185;50.978;13.720;2022-07-23T06:29:59;98380.56;;;22.55;56.43
34979;BME280;21185;50.978;13.720;2022-07-23T06:35:01;98374.69;;;22.53;56.58
34979;BME280;21185;50.978;13.720;2022-07-23T06:40:04;98372.06;;;22.53;56.76
34979;BME280;21185;50.978;13.720;2022-07-23T06:45:09;98360.25;;;22.44;56.90
34979;BME280;21185;50.978;13.720;2022-07-23T06:50:11;98369.88;;;22.50;56.51
34979;BME280;21185;50.978;13.720;2022-07-23T06:55:13;98384.03;;;22.44;56.58
34979;BME280;21185;50.978;13.720;2022-07-23T07:00:16;98368.66;;;22.41;56.56
34979;BME280;21185;50.978;13.720;2022-07-23T07:05:18;98378.19;;;22.42;56.71
34979;BME280;21185;50.978;13.720;2022-07-23T07:10:20;98371.72;;;22.50;56.88
34979;BME280;21185;50.978;13.720;2022-07-23T07:15:22;98347.41;;;22.65;56.44
34979;BME280;21185;50.978;13.720;2022-07-23T07:20:24;98352.38;;;22.78;56.36
34979;BME280;21185;50.978;13.720;2022-07-23T07:25:26;98342.97;;;22.99;56.04
34979;BME280;21185;50.978;13.720;2022-07-23T07:30:28;98354.94;;;23.18;56.15
34979;BME280;21185;50.978;13.720;2022-07-23T07:35:35;98362.94;;;23.40;55.87
34979;BME280;21185;50.978;13.720;2022-07-23T07:40:37;98364.84;;;23.61;55.69
34979;BME280;21185;50.978;13.720;2022-07-23T07:45:39;98368.69;;;23.70;55.50
34979;BME280;21185;50.978;13.720;2022-07-23T07:50:41;98375.78;;;23.65;55.72
34979;BME280;21185;50.978;13.720;2022-07-23T07:55:45;98368.41;;;23.88;55.50
34979;BME280;21185;50.978;13.720;2022-07-23T08:00:52;98369.16;;;24.06;55.34
34979;BME280;21185;50.978;13.720;2022-07-23T08:05:55;98347.94;;;24.06;54.94
34979;BME280;21185;50.978;13.720;2022-07-23T08:10:57;98331.31;;;24.10;55.18
34979;BME280;21185;50.978;13.720;2022-07-23T08:15:59;98352.69;;;24.26;55.01
34979;BME280;21185;50.978;13.720;2022-07-23T08:21:02;98336.72;;;24.42;54.76
34979;BME280;21185;50.978;13.720;2022-07-23T08:26:06;98329.34;;;24.49;54.53
34979;BME280;21185;50.978;13.720;2022-07-23T08:31:09;98336.47;;;24.71;54.00
34979;BME280;21185;50.978;13.720;2022-07-23T08:36:13;98332.56;;;24.78;53.78
34979;BME280;21185;50.978;13.720;2022-07-23T08:41:16;98329.78;;;24.95;53.60
34979;BME280;21185;50.978;13.720;2022-07-23T08:46:19;98340.47;;;25.00;53.68
34979;BME280;21185;50.978;13.720;2022-07-23T08:51:26;98336.63;;;24.91;53.78
34979;BME280;21185;50.978;13.720;2022-07-23T08:56:29;98338.78;;;24.94;53.33
34979;BME280;21185;50.978;13.720;2022-07-23T09:01:31;98348.56;;;24.89;53.83
34979;BME280;21185;50.978;13.720;2022-07-23T09:06:33;98343.47;;;24.82;53.44
34979;BME280;21185;50.978;13.720;2022-07-23T09:11:36;98350.47;;;24.93;53.10
34979;BME280;21185;50.978;13.720;2022-07-23T09:16:38;98358.78;;;25.02;52.92
34979;BME280;21185;50.978;13.720;2022-07-23T09:21:40;98355.38;;;25.06;53.09
34979;BME280;21185;50.978;13.720;2022-07-23T09:26:44;98347.50;;;25.16;52.84
34979;BME280;21185;50.978;13.720;2022-07-23T09:36:56;98357.69;;;25.30;52.68
34979;BME280;21185;50.978;13.720;2022-07-23T09:42:18;98358.19;;;25.27;52.66
34979;BME280;21185;50.978;13.720;2022-07-23T09:47:23;98379.34;;;25.16;52.65
34979;BME280;21185;50.978;13.720;2022-07-23T09:52:30;98385.22;;;25.18;53.00
34979;BME280;21185;50.978;13.720;2022-07-23T09:57:37;98385.84;;;25.31;52.86
34979;BME280;21185;50.978;13.720;2022-07-23T10:02:41;98378.25;;;25.49;52.47
34979;BME280;21185;50.978;13.720;2022-07-23T10:08:04;98383.22;;;25.73;51.99
34979;BME280;21185;50.978;13.720;2022-07-23T10:13:46;98391.59;;;25.97;51.81
34979;BME280;21185;50.978;13.720;2022-07-23T10:19:12;98372.47;;;26.10;51.05
34979;BME280;21185;50.978;13.720;2022-07-23T10:25:06;98375.28;;;26.45;50.97
34979;BME280;21185;50.978;13.720;2022-07-23T10:30:05;98382.22;;;26.57;50.39
34979;BME280;21185;50.978;13.720;2022-07-23T10:41:00;98396.00;;;26.38;50.44
34979;BME280;21185;50.978;13.720;2022-07-23T10:46:21;98397.59;;;26.34;50.34
34979;BME280;21185;50.978;13.720;2022-07-23T10:51:27;98398.72;;;26.54;50.11
34979;BME280;21185;50.978;13.720;2022-07-23T11:02:20;98401.94;;;26.66;49.08
34979;BME280;21185;50.978;13.720;2022-07-23T11:07:23;98401.94;;;26.66;49.53
34979;BME280;21185;50.978;13.720;2022-07-23T11:27:48;98396.69;;;27.06;48.96
34979;BME280;21185;50.978;13.720;2022-07-23T11:32:51;98394.84;;;27.12;48.44
34979;BME280;21185;50.978;13.720;2022-07-23T11:38:02;98401.72;;;26.93;48.63
34979;BME280;21185;50.978;13.720;2022-07-23T11:43:07;98406.22;;;26.77;48.84
34979;BME280;21185;50.978;13.720;2022-07-23T11:48:20;98411.00;;;26.80;48.58
34979;BME280;21185;50.978;13.720;2022-07-23T11:53:30;98407.31;;;26.91;48.28
34979;BME280;21185;50.978;13.720;2022-07-23T11:58:33;98403.03;;;26.80;48.51
34979;BME280;21185;50.978;13.720;2022-07-23T12:03:35;98412.31;;;26.62;49.04
34979;BME280;21185;50.978;13.720;2022-07-23T12:08:41;98409.88;;;26.45;49.37
34979;BME280;21185;50.978;13.720;2022-07-23T12:13:56;98416.63;;;26.16;49.71
34979;BME280;21185;50.978;13.720;2022-07-23T12:18:59;98418.72;;;25.99;49.74
34979;BME280;21185;50.978;13.720;2022-07-23T12:24:09;98428.19;;;25.85;49.71
34979;BME280;21185;50.978;13.720;2022-07-23T12:29:11;98428.72;;;25.81;50.05
34979;BME280;21185;50.978;13.720;2022-07-23T12:34:14;98427.41;;;25.84;49.81
34979;BME280;21185;50.978;13.720;2022-07-23T12:39:32;98433.78;;;25.83;50.56
34979;BME280;21185;50.978;13.720;2022-07-23T12:44:34;98435.63;;;25.83;50.39
34979;BME280;21185;50.978;13.720;2022-07-23T12:49:40;98435.06;;;25.75;50.27
34979;BME280;21185;50.978;13.720;2022-07-23T12:54:42;98428.69;;;25.76;50.43
34979;BME280;21185;50.978;13.720;2022-07-23T12:59:44;98435.59;;;25.77;50.60
34979;BME280;21185;50.978;13.720;2022-07-23T13:04:45;98436.44;;;25.83;50.38
34979;BME280;21185;50.978;13.720;2022-07-23T13:09:48;98435.19;;;26.01;50.10
34979;BME280;21185;50.978;13.720;2022-07-23T13:14:50;98432.81;;;26.04;50.51
34979;BME280;21185;50.978;13.720;2022-07-23T13:19:52;98449.81;;;26.03;50.59
34979;BME280;21185;50.978;13.720;2022-07-23T13:24:54;98444.78;;;26.07;50.35
34979;BME280;21185;50.978;13.720;2022-07-23T13:29:56;98440.56;;;26.16;50.31
34979;BME280;21185;50.978;13.720;2022-07-23T13:34:58;98437.88;;;26.11;50.17
34979;BME280;21185;50.978;13.720;2022-07-23T13:40:02;98451.94;;;25.96;50.33
34979;BME280;21185;50.978;13.720;2022-07-23T13:45:19;98455.91;;;25.94;50.45
34979;BME280;21185;50.978;13.720;2022-07-23T13:50:21;98446.63;;;25.96;50.45
34979;BME280;21185;50.978;13.720;2022-07-23T13:55:23;98447.16;;;25.98;50.66
34979;BME280;21185;50.978;13.720;2022-07-23T14:00:28;98446.13;;;26.09;50.66
34979;BME280;21185;50.978;13.720;2022-07-23T14:05:53;98441.88;;;26.08;50.19
34979;BME280;21185;50.978;13.720;2022-07-23T14:10:58;98443.69;;;26.03;50.40
34979;BME280;21185;50.978;13.720;2022-07-23T14:16:01;98451.13;;;26.01;50.40
34979;BME280;21185;50.978;13.720;2022-07-23T14:21:04;98450.88;;;25.97;50.36
34979;BME280;21185;50.978;13.720;2022-07-23T14:26:07;98440.50;;;26.01;50.67
34979;BME280;21185;50.978;13.720;2022-07-23T14:31:10;98438.13;;;26.04;50.32
34979;BME280;21185;50.978;13.720;2022-07-23T14:36:22;98440.59;;;26.21;50.46
34979;BME280;21185;50.978;13.720;2022-07-23T14:41:24;98430.09;;;26.52;49.71
34979;BME280;21185;50.978;13.720;2022-07-23T14:46:29;98429.31;;;26.56;49.81
34979;BME280;21185;50.978;13.720;2022-07-23T14:51:31;98434.88;;;26.50;49.62
34979;BME280;21185;50.978;13.720;2022-07-23T14:56:34;98434.84;;;26.39;49.91
34979;BME280;21185;50.978;13.720;2022-07-23T15:01:38;98437.19;;;26.31;49.86
34979;BME280;21185;50.978;13.720;2022-07-23T15:06:41;98437.22;;;26.36;49.80
34979;BME280;21185;50.978;13.720;2022-07-23T15:11:44;98455.53;;;26.27;49.73
34979;BME280;21185;50.978;13.720;2022-07-23T15:16:48;98449.91;;;26.19;49.61
34979;BME280;21185;50.978;13.720;2022-07-23T15:21:53;98449.59;;;26.15;49.63
34979;BME280;21185;50.978;13.720;2022-07-23T15:26:55;98450.94;;;26.12;49.51
34979;BME280;21185;50.978;13.720;2022-07-23T15:31:58;98451.75;;;26.18;49.46
34979;BME280;21185;50.978;13.720;2022-07-23T15:37:03;98446.13;;;26.09;49.08
34979;BME280;21185;50.978;13.720;2022-07-23T15:42:12;98449.31;;;26.06;49.49
34979;BME280;21185;50.978;13.720;2022-07-23T15:47:17;98444.53;;;26.08;49.25
34979;BME280;21185;50.978;13.720;2022-07-23T15:52:19;98442.91;;;26.02;49.10
34979;BME280;21185;50.978;13.720;2022-07-23T15:57:22;98447.41;;;25.97;49.16
34979;BME280;21185;50.978;13.720;2022-07-23T16:02:24;98444.19;;;25.90;49.14
34979;BME280;21185;50.978;13.720;2022-07-23T16:07:28;98446.53;;;25.81;49.30
34979;BME280;21185;50.978;13.720;2022-07-23T16:12:33;98443.56;;;25.77;49.19
34979;BME280;21185;50.978;13.720;2022-07-23T16:17:35;98453.91;;;25.74;49.06
34979;BME280;21185;50.978;13.720;2022-07-23T16:22:37;98450.97;;;25.70;49.03
34979;BME280;21185;50.978;13.720;2022-07-23T16:27:40;98454.41;;;25.66;49.21
34979;BME280;21185;50.978;13.720;2022-07-23T16:32:42;98453.03;;;25.63;49.04
34979;BME280;21185;50.978;13.720;2022-07-23T16:37:46;98451.75;;;25.66;48.85
34979;BME280;21185;50.978;13.720;2022-07-23T16:42:47;98454.06;;;25.62;48.83
34979;BME280;21185;50.978;13.720;2022-07-23T16:47:50;98449.22;;;25.54;48.96
34979;BME280;21185;50.978;13.720;2022-07-23T16:52:52;98449.75;;;25.51;48.95
34979;BME280;21185;50.978;13.720;2022-07-23T16:57:54;98454.53;;;25.54;49.14
34979;BME280;21185;50.978;13.720;2022-07-23T17:02:56;98456.41;;;25.54;48.98
34979;BME280;21185;50.978;13.720;2022-07-23T17:08:05;98457.66;;;25.46;48.97
34979;BME280;21185;50.978;13.720;2022-07-23T17:13:07;98454.16;;;25.40;49.18
34979;BME280;21185;50.978;13.720;2022-07-23T17:18:09;98459.75;;;25.39;49.19
34979;BME280;21185;50.978;13.720;2022-07-23T17:23:14;98458.19;;;25.43;49.07
34979;BME280;21185;50.978;13.720;2022-07-23T17:28:16;98460.28;;;25.41;49.48
34979;BME280;21185;50.978;13.720;2022-07-23T17:33:18;98463.19;;;25.39;49.73
34979;BME280;21185;50.978;13.720;2022-07-23T17:38:21;98472.22;;;25.38;49.53
34979;BME280;21185;50.978;13.720;2022-07-23T17:43:23;98473.81;;;25.39;49.65
34979;BME280;21185;50.978;13.720;2022-07-23T17:48:25;98481.53;;;25.41;49.19
34979;BME280;21185;50.978;13.720;2022-07-23T17:53:28;98480.44;;;25.37;49.56
34979;BME280;21185;50.978;13.720;2022-07-23T17:58:30;98500.53;;;25.28;49.60
34979;BME280;21185;50.978;13.720;2022-07-23T18:03:32;98494.88;;;25.19;49.30
34979;BME280;21185;50.978;13.720;2022-07-23T18:08:34;98492.69;;;25.11;49.25
34979;BME280;21185;50.978;13.720;2022-07-23T18:13:36;98499.75;;;25.00;49.47
34979;BME280;21185;50.978;13.720;2022-07-23T18:18:38;98499.91;;;24.94;49.46
34979;BME280;21185;50.978;13.720;2022-07-23T18:23:40;98501.41;;;24.84;49.27
34979;BME280;21185;50.978;13.720;2022-07-23T18:28:42;98503.19;;;24.79;49.43
34979;BME280;21185;50.978;13.720;2022-07-23T18:33:44;98504.75;;;24.75;49.08
34979;BME280;21185;50.978;13.720;2022-07-23T18:38:46;98512.63;;;24.70;49.00
34979;BME280;21185;50.978;13.720;2022-07-23T18:43:56;98527.44;;;24.66;49.19
34979;BME280;21185;50.978;13.720;2022-07-23T18:48:58;98525.22;;;24.58;49.12
34979;BME280;21185;50.978;13.720;2022-07-23T18:54:00;98531.50;;;24.51;49.36
34979;BME280;21185;50.978;13.720;2022-07-23T18:59:04;98534.84;;;24.42;49.05
34979;BME280;21185;50.978;13.720;2022-07-23T19:04:07;98541.84;;;24.31;49.62
34979;BME280;21185;50.978;13.720;2022-07-23T19:09:09;98555.97;;;24.20;49.48
34979;BME280;21185;50.978;13.720;2022-07-23T19:14:12;98556.06;;;24.08;49.66
34979;BME280;21185;50.978;13.720;2022-07-23T19:19:15;98562.25;;;23.97;49.76
34979;BME280;21185;50.978;13.720;2022-07-23T19:24:17;98560.25;;;23.87;50.24
34979;BME280;21185;50.978;13.720;2022-07-23T19:29:24;98563.53;;;23.78;50.15
34979;BME280;21185;50.978;13.720;2022-07-23T19:34:26;98566.81;;;23.68;50.52
34979;BME280;21185;50.978;13.720;2022-07-23T19:39:28;98570.09;;;23.58;50.70
34979;BME280;21185;50.978;13.720;2022-07-23T19:44:30;98567.81;;;23.50;50.55
34979;BME280;21185;50.978;13.720;2022-07-23T19:49:32;98575.91;;;23.44;50.85
34979;BME280;21185;50.978;13.720;2022-07-23T19:54:34;98575.25;;;23.37;50.78
34979;BME280;21185;50.978;13.720;2022-07-23T19:59:36;98582.28;;;23.31;50.97
34979;BME280;21185;50.978;13.720;2022-07-23T20:04:41;98585.09;;;23.24;50.89
34979;BME280;21185;50.978;13.720;2022-07-23T20:09:43;98592.13;;;23.19;51.01
34979;BME280;21185;50.978;13.720;2022-07-23T20:14:45;98593.88;;;23.13;51.33
34979;BME280;21185;50.978;13.720;2022-07-23T20:19:47;98595.63;;;23.08;51.37
34979;BME280;21185;50.978;13.720;2022-07-23T20:24:50;98601.84;;;23.02;51.54
34979;BME280;21185;50.978;13.720;2022-07-23T20:29:52;98607.03;;;22.97;51.71
34979;BME280;21185;50.978;13.720;2022-07-23T20:34:54;98616.72;;;22.91;51.49
34979;BME280;21185;50.978;13.720;2022-07-23T20:39:56;98610.28;;;22.87;51.47
34979;BME280;21185;50.978;13.720;2022-07-23T20:44:58;98617.31;;;22.81;52.00
34979;BME280;21185;50.978;13.720;2022-07-23T20:50:00;98627.75;;;22.76;51.81
34979;BME280;21185;50.978;13.720;2022-07-23T20:55:04;98631.09;;;22.72;51.91
34979;BME280;21185;50.978;13.720;2022-07-23T21:00:08;98635.56;;;22.71;52.29
34979;BME280;21185;50.978;13.720;2022-07-23T21:05:11;98639.03;;;22.72;52.21
34979;BME280;21185;50.978;13.720;2022-07-23T21:10:13;98643.97;;;22.68;52.13
34979;BME280;21185;50.978;13.720;2022-07-23T21:15:18;98643.06;;;22.62;52.51
34979;BME280;21185;50.978;13.720;2022-07-23T21:20:20;98647.66;;;22.55;52.73
34979;BME280;21185;50.978;13.720;2022-07-23T21:25:22;98644.31;;;22.48;52.83
34979;BME280;21185;50.978;13.720;2022-07-23T21:30:24;98644.19;;;22.43;52.87
34979;BME280;21185;50.978;13.720;2022-07-23T21:35:29;98652.00;;;22.38;52.98
34979;BME280;21185;50.978;13.720;2022-07-23T21:40:32;98653.97;;;22.31;52.92
34979;BME280;21185;50.978;13.720;2022-07-23T21:45:34;98666.25;;;22.25;52.95
34979;BME280;21185;50.978;13.720;2022-07-23T21:50:36;98667.28;;;22.24;53.27
34979;BME280;21185;50.978;13.720;2022-07-23T21:55:38;98672.78;;;22.23;53.37
34979;BME280;21185;50.978;13.720;2022-07-23T22:00:40;98679.00;;;22.17;53.27
34979;BME280;21185;50.978;13.720;2022-07-23T22:05:42;98680.94;;;22.10;53.29
34979;BME280;21185;50.978;13.720;2022-07-23T22:10:44;98690.56;;;22.04;53.41
34979;BME280;21185;50.978;13.720;2022-07-23T22:15:47;98690.63;;;21.97;53.52
34979;BME280;21185;50.978;13.720;2022-07-23T22:20:49;98691.31;;;21.93;53.87
34979;BME280;21185;50.978;13.720;2022-07-23T22:25:52;98694.63;;;21.88;53.78
34979;BME280;21185;50.978;13.720;2022-07-23T22:30:54;98700.00;;;21.82;54.03
34979;BME280;21185;50.978;13.720;2022-07-23T22:35:56;98691.72;;;21.78;54.05
34979;BME280;21185;50.978;13.720;2022-07-23T22:40:58;98690.31;;;21.76;53.88
34979;BME280;21185;50.978;13.720;2022-07-23T22:46:00;98695.47;;;21.71;54.28
34979;BME280;21185;50.978;13.720;2022-07-23T22:51:02;98699.00;;;21.64;54.34
34979;BME280;21185;50.978;13.720;2022-07-23T22:56:04;98699.22;;;21.63;54.27
34979;BME280;21185;50.978;13.720;2022-07-23T23:01:06;98702.09;;;21.61;54.17
34979;BME280;21185;50.978;13.720;2022-07-23T23:06:08;98699.09;;;21.58;54.17
34979;BME280;21185;50.978;13.720;2022-07-23T23:11:11;98714.78;;;21.53;54.22
34979;BME280;21185;50.978;13.720;2022-07-23T23:16:13;98707.53;;;21.48;54.52
34979;BME280;21185;50.978;13.720;2022-07-23T23:21:15;98708.56;;;21.47;54.23
34979;BME280;21185;50.978;13.720;2022-07-23T23:26:17;98707.75;;;21.47;54.57
34979;BME280;21185;50.978;13.720;2022-07-23T23:31:19;98710.25;;;21.42;54.42
34979;BME280;21185;50.978;13.720;2022-07-23T23:36:21;98712.38;;;21.33;54.43
34979;BME280;21185;50.978;13.720;2022-07-23T23:41:23;98718.53;;;21.27;54.48
34979;BME280;21185;50.978;13.720;2022-07-23T23:46:27;98718.41;;;21.22;54.62
34979;BME280;21185;50.978;13.720;2022-07-23T23:51:30;98724.88;;;21.19;54.06
34979;BME280;21185;50.978;13.720;2022-07-23T23:56:34;98716.59;;;21.16;54.28
